Weather at Creech Heliport

Public forecast

Using degrees Fahrenheit for public forecast. Weather courtesy of forecast.io.

Closest aviation weather report (METAR) to Creech Heliport

Closest report is Blue Grass Airport, 13.9 nm (25.7 km) W. Retrieved 2021/06/13 16:54 UTC (46 minutes ago):

KLEX 131654Z 21008KT 10SM CLR 29/22 A2994 RMK AO2 SLP127 T02890217

Closest aviation forecast (TAF) to Creech Heliport

Closest forecast is Blue Grass Airport, 13.9 nm (25.7 km) W. Retrieved 2021/06/13 12:22 UTC (5 hours ago):

TAF KLEX 131120Z 1312/1412 VRB03KT P6SM OVC250 FM131500 28005KT P6SM SCT250 FM131800 30007KT P6SM VCTS SCT050CB TEMPO 1319/1321 2SM TSRA OVC040CB FM132300 35005KT P6SM SCT250